Airfield :
LOGIN :

Register | Disclaimer

   EN    FR    IT 

 










Legend :    VFR   Marginal VFR   IFR   Intensive IFR   Very Intensive IFR
Visi :
Ceiling :
>= 8 km
>= 3000ft
5 to 8 km
1000 to 3000 ft
1500m to 5 km
500 to 1000 ft
800 to 1500m
200 to 500 ft
< 800m
< 200 ft
Symbols :   Thunderstorms  Fog  Heavy snow  Heavy precipitations  Wind > 20 kt
SIGMETs :     Misc.  Thunderstorms  Icing  Turbulence  Mountain Waves  Volcanic Ashes






- Airport Elevation : 106 ft
- IATA code : NRN


EDLV - Weeze

CURRENT METAR :
  • 041250Z 20008KT 170V230 CAVOK 18/10 Q1020

EXPIRED METARs :
  • 041220Z 20008KT 180V240 CAVOK 18/10 Q1020
  • 041150Z 21008KT 180V260 CAVOK 18/09 Q1020
  • 041120Z 21008KT 170V250 CAVOK 18/10 Q1021
  • 041050Z 22009KT CAVOK 17/10 Q1020
  • 041020Z 20008KT 170V240 CAVOK 16/10 Q1021
  • 040950Z 21007KT 180V240 CAVOK 15/10 Q1021

TAF TAF EDLV
Valid from the 04 at 12:00 until the 05 at 12:00 UTC


041100Z 0412/0512 20008KT CAVOK
BECMG 0506/0509 20013KT
TEMPO 0510/0512 22015G25KT



MET'MAP, your aeronautical weather chart ! - Copyright ORBIFLY December 2007 - Disclaimer

ORBIFLY MET'MAP TEAM :

Programming & Development : Alexandra Zaïnal
Original concept : Baudouin d'Aumeries
Technical & hardware support : Manuel Goepfert
Assistance : Marc-Olivier Méhu




SOURCES & CREDITS :

   NOAA